Zografos, Greece
Current Conditions -  °F | °C
As of 5:20 AM on Tuesday 21 Oct 2014 (Local Time) from LGTS Reporting Station
Few Clouds Few Clouds  
Wind Chill: 10°   Ceiling: Unl
Heat Index: 10°   Visibility: 6mi
Dew Point:   Wind: 7mph
Humidity: 94%   Direction: 110°ESE
Pressure: 30"   Gusts: NA
Location:  40.28°N, 23.25°E
Report Text: LGTS 210220Z 11006KT 9999 FEW030 10/09 Q1016 NOSIG
Loading
Personal Weather Stations






























Interactive Weather Map
Tropical Storm Tracking
New forecast layout! Learn more

10-Day Weather Forecast

Advertisements
Track Severe Weather on mobile